Terminal Aerodrome Forecast
Issued by NWS

Home | Current Version | Previous Version | Text Only | Print | Product List | Glossary On
Versions: 1 2 3 4 5 6 7 8 9 10 11 12 13 14 15 16 17 18 19 20
172
FTUS46 KSGX 272336
TAFCRQ
TAF
KCRQ 272336Z 2800/2824 26009KT P6SM FEW005
     FM280100 VRB04KT P6SM SCT005
     FM280300 VRB04KT 5SM BR OVC005
     FM281600 VRB04KT P6SM SCT007
     FM281900 24008KT P6SM SKC=

USA.gov is the U.S. government's official web portal to all federal, state and local government web resources and services.